createdAt,value
2023-01-06T00:00:35.682Z,97955.34
2023-01-06T00:03:02.218Z,97957.78
2023-01-06T00:05:31.621Z,97952.75
2023-01-06T00:07:59.043Z,97957.19
2023-01-06T00:10:25.668Z,97946.22
2023-01-06T00:12:54.525Z,97953.75
2023-01-06T00:15:21.159Z,97951.22
2023-01-06T00:17:47.650Z,97953.47
2023-01-06T00:20:16.547Z,97950.19
2023-01-06T00:22:43.121Z,97942.09
2023-01-06T00:25:10.717Z,97941.84
2023-01-06T00:27:38.604Z,97942.94
2023-01-06T00:30:05.762Z,97947.84
2023-01-06T00:32:34.740Z,97936.16
2023-01-06T00:35:01.190Z,97933.81
2023-01-06T00:37:27.706Z,97927.03
2023-01-06T00:39:54.196Z,97928.09
2023-01-06T00:42:22.396Z,97927.78
2023-01-06T00:44:48.857Z,97928.84
2023-01-06T00:47:15.332Z,97929.09
2023-01-06T00:49:42.205Z,97919.72
2023-01-06T00:52:09.068Z,97921.63
2023-01-06T00:54:36.694Z,97922.13
2023-01-06T00:57:03.582Z,97920.63
2023-01-06T00:59:32.387Z,97911.91
2023-01-06T01:01:59.255Z,97919.31
2023-01-06T01:04:26.767Z,97921.16
2023-01-06T01:06:56.530Z,97917.59
2023-01-06T01:09:30.857Z,97906.78
2023-01-06T01:12:11.776Z,97911.75
2023-01-06T01:14:50.300Z,97909.06
2023-01-06T01:17:19.522Z,97904.53
2023-01-06T01:19:48.759Z,97906.88
2023-01-06T01:22:15.361Z,97905.34
2023-01-06T01:24:42.239Z,97898.75
2023-01-06T01:27:09.216Z,97897.16
2023-01-06T01:29:35.663Z,97901.34
2023-01-06T01:32:05.334Z,97903.59
2023-01-06T01:34:31.803Z,97902.75
2023-01-06T01:36:58.469Z,97900.69
2023-01-06T01:39:27.966Z,97904.44
2023-01-06T01:41:56.303Z,97904.72
2023-01-06T01:44:47.772Z,97899.00
2023-01-06T01:47:24.046Z,97911.00
2023-01-06T01:49:57.298Z,97911.44
2023-01-06T01:52:24.809Z,97899.50
2023-01-06T01:54:53.277Z,97903.38
2023-01-06T01:57:26.104Z,97897.03
2023-01-06T01:59:52.979Z,97899.00
2023-01-06T02:02:20.118Z,97897.44
2023-01-06T02:04:54.492Z,97894.81
2023-01-06T02:07:23.229Z,97896.09
2023-01-06T02:10:19.951Z,97894.81
2023-01-06T02:12:49.332Z,97896.34
2023-01-06T02:15:15.936Z,97884.19
2023-01-06T02:17:55.960Z,97882.75
2023-01-06T02:20:40.704Z,97878.91
2023-01-06T02:23:30.862Z,97877.72
2023-01-06T02:26:25.428Z,97870.44
2023-01-06T02:29:13.926Z,97865.59
2023-01-06T02:31:52.574Z,97864.66
2023-01-06T02:34:47.948Z,97872.19
2023-01-06T02:37:35.213Z,97865.94
2023-01-06T02:40:23.355Z,97851.72
2023-01-06T02:42:59.688Z,97850.22
2023-01-06T02:45:46.236Z,97850.72
2023-01-06T02:48:46.903Z,97846.34
2023-01-06T02:51:27.388Z,97858.00
2023-01-06T02:54:27.060Z,97853.34
2023-01-06T02:57:03.489Z,97852.19
2023-01-06T02:59:36.663Z,97848.28
2023-01-06T03:02:04.497Z,97847.47
2023-01-06T03:04:36.524Z,97843.28
2023-01-06T03:07:05.736Z,97841.19
2023-01-06T03:09:36.936Z,97836.53
2023-01-06T03:12:14.926Z,97841.28
2023-01-06T03:14:51.783Z,97837.59
2023-01-06T03:17:18.511Z,97839.91
2023-01-06T03:19:45.262Z,97830.13
2023-01-06T03:22:12.223Z,97833.03
2023-01-06T03:24:39.447Z,97836.81
2023-01-06T03:27:07.139Z,97833.69
2023-01-06T03:29:35.081Z,97833.59
2023-01-06T03:32:09.835Z,97834.09
2023-01-06T03:34:55.018Z,97832.94
2023-01-06T03:37:36.723Z,97832.38
2023-01-06T03:40:26.070Z,97823.00
2023-01-06T03:43:16.134Z,97819.72
2023-01-06T03:45:53.489Z,97821.00
2023-01-06T03:48:56.237Z,97823.03
2023-01-06T03:51:28.714Z,97826.69
2023-01-06T03:54:06.894Z,97822.81
2023-01-06T03:56:42.545Z,97825.72
2023-01-06T03:59:18.257Z,97820.81
2023-01-06T04:01:45.539Z,97818.84
2023-01-06T04:04:12.338Z,97821.31
2023-01-06T04:06:38.935Z,97803.78
2023-01-06T04:09:05.426Z,97812.13
2023-01-06T04:11:50.588Z,97809.34
2023-01-06T04:14:17.012Z,97812.31
2023-01-06T04:16:43.497Z,97797.94
2023-01-06T04:19:09.940Z,97798.13
2023-01-06T04:21:36.358Z,97805.47
2023-01-06T04:24:03.219Z,97811.47
2023-01-06T04:26:29.732Z,97806.22
2023-01-06T04:28:56.632Z,97811.88
2023-01-06T04:31:23.063Z,97811.13
2023-01-06T04:33:49.567Z,97813.25
2023-01-06T04:36:16.083Z,97810.78
2023-01-06T04:38:42.556Z,97812.19
2023-01-06T04:41:09.040Z,97812.44
2023-01-06T04:43:38.043Z,97817.22
2023-01-06T04:46:04.927Z,97813.59
2023-01-06T04:48:31.595Z,97823.41
2023-01-06T04:51:12.008Z,97836.44
2023-01-06T04:53:40.788Z,97824.41
2023-01-06T04:56:10.161Z,97836.16
2023-01-06T04:58:38.204Z,97831.03
2023-01-06T05:01:07.506Z,97835.91
2023-01-06T05:03:35.934Z,97831.44
2023-01-06T05:06:04.954Z,97832.03
2023-01-06T05:08:32.212Z,97838.03
2023-01-06T05:11:03.555Z,97827.13
2023-01-06T05:13:33.787Z,97830.41
2023-01-06T05:16:00.605Z,97827.28
2023-01-06T05:18:27.127Z,97818.84
2023-01-06T05:20:54.652Z,97821.53
2023-01-06T05:23:21.675Z,97825.28
2023-01-06T05:25:51.095Z,97822.25
2023-01-06T05:28:18.386Z,97825.88
2023-01-06T05:30:44.910Z,97828.53
2023-01-06T05:33:11.366Z,97826.72
2023-01-06T05:35:37.831Z,97830.09
2023-01-06T05:38:06.522Z,97809.72
2023-01-06T05:40:34.589Z,97826.47
2023-01-06T05:43:01.086Z,97822.63
2023-01-06T05:45:27.668Z,97824.25
2023-01-06T05:47:54.129Z,97827.41
2023-01-06T05:50:20.709Z,97829.16
2023-01-06T05:52:47.153Z,97824.53
2023-01-06T05:55:13.620Z,97822.88
2023-01-06T05:57:40.133Z,97818.78
2023-01-06T06:00:08.365Z,97825.34
2023-01-06T06:02:34.836Z,97821.44
2023-01-06T06:05:01.290Z,97827.44
2023-01-06T06:07:27.772Z,97829.19
2023-01-06T06:09:54.204Z,97834.75
2023-01-06T06:12:20.708Z,97827.94
2023-01-06T06:14:47.137Z,97844.13
2023-01-06T06:17:13.632Z,97841.38
2023-01-06T06:19:40.105Z,97836.94
2023-01-06T06:22:07.637Z,97836.25
2023-01-06T06:24:35.667Z,97844.78
2023-01-06T06:27:04.864Z,97849.41
2023-01-06T06:29:31.345Z,97845.06
2023-01-06T06:31:59.880Z,97846.16
2023-01-06T06:34:26.417Z,97846.81
2023-01-06T06:36:52.979Z,97846.69
2023-01-06T06:39:21.740Z,97844.88
2023-01-06T06:41:48.293Z,97844.69
2023-01-06T06:44:14.777Z,97845.41
2023-01-06T06:46:41.262Z,97845.66
2023-01-06T06:49:07.768Z,97841.00
2023-01-06T06:51:34.562Z,97841.91
2023-01-06T06:54:04.987Z,97843.53
2023-01-06T06:56:31.474Z,97832.09
2023-01-06T06:59:00.213Z,97836.94
2023-01-06T07:01:27.782Z,97835.00
2023-01-06T07:03:54.435Z,97836.09
2023-01-06T07:06:23.378Z,97830.81
2023-01-06T07:08:50.294Z,97838.28
2023-01-06T07:11:19.623Z,97838.25
2023-01-06T07:13:46.335Z,97835.13
2023-01-06T07:16:12.948Z,97843.31
2023-01-06T07:18:39.599Z,97839.34
2023-01-06T07:21:07.159Z,97842.41
2023-01-06T07:23:34.249Z,97837.97
2023-01-06T07:26:02.314Z,97835.13
2023-01-06T07:28:30.990Z,97832.66
2023-01-06T07:30:57.643Z,97833.00
2023-01-06T07:33:24.435Z,97824.22
2023-01-06T07:35:56.050Z,97833.09
2023-01-06T07:38:25.294Z,97831.19
2023-01-06T07:40:52.630Z,97837.59
2023-01-06T07:43:19.190Z,97833.56
2023-01-06T07:45:51.097Z,97835.44
2023-01-06T07:48:17.664Z,97840.31
2023-01-06T07:50:44.231Z,97829.19
2023-01-06T07:53:11.364Z,97821.50
2023-01-06T07:55:37.937Z,97829.63
2023-01-06T07:58:08.744Z,97825.16
2023-01-06T08:00:36.134Z,97823.69
2023-01-06T08:03:05.246Z,97821.66
2023-01-06T08:05:31.767Z,97825.88
2023-01-06T08:08:00.716Z,97825.72
2023-01-06T08:10:27.308Z,97830.00
2023-01-06T08:12:53.858Z,97826.31
2023-01-06T08:15:20.354Z,97838.78
2023-01-06T08:17:46.840Z,97832.78
2023-01-06T08:20:13.270Z,97827.00
2023-01-06T08:22:39.720Z,97831.38
2023-01-06T08:25:06.656Z,97826.50
2023-01-06T08:27:33.148Z,97833.41
2023-01-06T08:29:59.618Z,97825.78
2023-01-06T08:32:28.163Z,97822.44
2023-01-06T08:34:54.704Z,97832.69
2023-01-06T08:37:21.191Z,97828.88
2023-01-06T08:39:48.419Z,97828.28
2023-01-06T08:42:15.135Z,97823.06
2023-01-06T08:44:41.632Z,97822.66
2023-01-06T08:47:08.113Z,97822.59
2023-01-06T08:49:34.598Z,97818.03
2023-01-06T08:52:01.066Z,97817.97
2023-01-06T08:54:29.389Z,97815.38
2023-01-06T08:56:57.230Z,97811.44
2023-01-06T08:59:23.746Z,97818.84
2023-01-06T09:01:50.282Z,97819.06
2023-01-06T09:04:16.818Z,97810.97
2023-01-06T09:06:44.084Z,97801.69
2023-01-06T09:09:16.344Z,97807.63
2023-01-06T09:11:44.548Z,97810.69
2023-01-06T09:14:16.891Z,97806.00
2023-01-06T09:16:43.467Z,97813.09
2023-01-06T09:19:10.512Z,97819.97
2023-01-06T09:21:37.097Z,97821.91
2023-01-06T09:24:04.232Z,97821.22
2023-01-06T09:26:33.059Z,97824.22
2023-01-06T09:29:01.796Z,97834.97
2023-01-06T09:31:28.390Z,97839.25
2023-01-06T09:33:57.350Z,97833.03
2023-01-06T09:36:23.874Z,97826.84
2023-01-06T09:38:50.433Z,97824.25
2023-01-06T09:41:22.811Z,97839.53
2023-01-06T09:43:59.419Z,97840.88
2023-01-06T09:46:31.171Z,97843.78
2023-01-06T09:49:22.433Z,97844.41
2023-01-06T09:51:53.878Z,97840.50
2023-01-06T09:54:29.719Z,97830.97
2023-01-06T09:57:15.789Z,97845.06
2023-01-06T09:59:58.623Z,97857.00
2023-01-06T10:02:35.004Z,97857.38
2023-01-06T10:05:15.308Z,97854.97
2023-01-06T10:07:50.388Z,97864.28
2023-01-06T10:10:29.123Z,97853.63
2023-01-06T10:13:21.998Z,97859.22
2023-01-06T10:16:17.556Z,97854.91
2023-01-06T10:19:02.340Z,97857.94
2023-01-06T10:22:05.788Z,97860.31
2023-01-06T10:25:14.323Z,97857.06
2023-01-06T10:27:44.663Z,97852.91
2023-01-06T10:30:19.976Z,97839.47
2023-01-06T10:32:49.041Z,97835.94
2023-01-06T10:35:17.582Z,97835.88
2023-01-06T10:37:49.725Z,97844.94
2023-01-06T10:40:23.397Z,97838.13
2023-01-06T10:43:11.941Z,97850.00
2023-01-06T10:45:42.455Z,97845.69
2023-01-06T10:48:34.308Z,97837.44
2023-01-06T10:51:28.082Z,97841.34
2023-01-06T10:54:00.358Z,97838.00
2023-01-06T10:56:32.078Z,97823.44
2023-01-06T10:59:06.359Z,97820.16
2023-01-06T11:01:34.831Z,97823.44
2023-01-06T11:04:13.126Z,97819.66
2023-01-06T11:07:01.410Z,97828.44
2023-01-06T11:09:48.205Z,97827.16
2023-01-06T11:12:17.143Z,97815.63
2023-01-06T11:14:52.110Z,97816.19
2023-01-06T11:17:22.012Z,97817.81
2023-01-06T11:20:06.990Z,97816.09
2023-01-06T11:22:41.366Z,97818.91
2023-01-06T11:25:19.976Z,97825.69
2023-01-06T11:28:07.213Z,97826.50
2023-01-06T11:30:38.901Z,97826.22
2023-01-06T11:33:13.937Z,97824.41
2023-01-06T11:35:40.465Z,97831.38
2023-01-06T11:38:10.793Z,97828.06
2023-01-06T11:40:37.573Z,97816.13
2023-01-06T11:43:12.824Z,97820.44
2023-01-06T11:46:05.304Z,97825.19
2023-01-06T11:48:58.675Z,97832.00
2023-01-06T11:51:45.547Z,97825.91
2023-01-06T11:54:33.225Z,97827.13
2023-01-06T11:57:09.440Z,97817.81
2023-01-06T12:00:03.770Z,97823.91
2023-01-06T12:02:41.585Z,97818.66
2023-01-06T12:05:32.054Z,97811.72
2023-01-06T12:08:00.735Z,97807.34
2023-01-06T12:10:34.644Z,97808.63
2023-01-06T12:13:01.173Z,97806.38
2023-01-06T12:15:31.142Z,97804.47
2023-01-06T12:18:21.676Z,97796.09
2023-01-06T12:20:51.479Z,97792.91
2023-01-06T12:23:24.630Z,97794.47
2023-01-06T12:25:57.013Z,97797.09
2023-01-06T12:28:38.237Z,97797.69
2023-01-06T12:31:24.508Z,97793.75
2023-01-06T12:34:13.072Z,97785.66
2023-01-06T12:36:46.562Z,97782.53
2023-01-06T12:39:27.916Z,97785.53
2023-01-06T12:42:16.853Z,97787.31
2023-01-06T12:44:53.362Z,97785.88
2023-01-06T12:47:46.983Z,97779.78
2023-01-06T12:50:25.627Z,97784.69
2023-01-06T12:53:10.140Z,97768.69
2023-01-06T12:55:46.530Z,97770.41
2023-01-06T12:58:49.095Z,97763.22
2023-01-06T13:01:19.617Z,97764.28
2023-01-06T13:03:52.424Z,97763.13
2023-01-06T13:06:35.184Z,97759.66
2023-01-06T13:09:31.167Z,97768.47
2023-01-06T13:12:26.078Z,97765.84
2023-01-06T13:14:55.183Z,97763.72
2023-01-06T13:17:34.099Z,97767.28
2023-01-06T13:20:08.056Z,97770.63
2023-01-06T13:22:56.547Z,97773.22
2023-01-06T13:25:43.491Z,97769.69
2023-01-06T13:28:28.246Z,97778.38
2023-01-06T13:30:57.919Z,97778.59
2023-01-06T13:34:03.917Z,97769.88
2023-01-06T13:37:04.583Z,97763.22
2023-01-06T13:39:34.890Z,97768.72
2023-01-06T13:42:06.145Z,97761.13
2023-01-06T13:44:37.756Z,97760.28
2023-01-06T13:47:17.807Z,97772.31
2023-01-06T13:49:44.350Z,97775.72
2023-01-06T13:52:18.766Z,97772.53
2023-01-06T13:54:45.230Z,97780.16
2023-01-06T13:57:39.256Z,97783.25
2023-01-06T14:00:05.690Z,97790.97
2023-01-06T14:02:35.241Z,97790.38
2023-01-06T14:05:06.551Z,97790.13
2023-01-06T14:07:38.686Z,97796.78
2023-01-06T14:10:26.746Z,97800.84
2023-01-06T14:12:54.257Z,97799.16
2023-01-06T14:15:55.281Z,97810.00
2023-01-06T14:19:17.605Z,97812.03
2023-01-06T14:21:45.464Z,97812.03
2023-01-06T14:24:31.678Z,97821.63
2023-01-06T14:27:07.109Z,97820.94
2023-01-06T14:29:39.406Z,97817.03
2023-01-06T14:32:11.897Z,97819.28
2023-01-06T14:34:59.628Z,97815.88
2023-01-06T14:37:41.419Z,97810.47
2023-01-06T14:40:18.243Z,97814.06
2023-01-06T14:42:46.287Z,97812.28
2023-01-06T14:45:34.289Z,97805.31
2023-01-06T14:48:13.008Z,97809.50
2023-01-06T14:50:47.453Z,97799.94
2023-01-06T14:53:21.900Z,97808.06
2023-01-06T14:55:49.820Z,97809.44
2023-01-06T14:58:30.937Z,97805.44
2023-01-06T15:00:58.351Z,97800.56
2023-01-06T15:03:27.655Z,97802.47
2023-01-06T15:06:18.545Z,97797.66
2023-01-06T15:08:45.142Z,97798.50
2023-01-06T15:11:25.077Z,97795.41
2023-01-06T15:13:51.936Z,97792.88
2023-01-06T15:16:21.647Z,97795.41
2023-01-06T15:18:49.621Z,97799.50
2023-01-06T15:21:18.003Z,97797.66
2023-01-06T15:23:50.925Z,97792.50
2023-01-06T15:26:26.812Z,97790.81
2023-01-06T15:29:01.227Z,97792.38
2023-01-06T15:31:34.013Z,97794.81
2023-01-06T15:34:05.700Z,97796.31
2023-01-06T15:36:32.514Z,97800.50
2023-01-06T15:39:02.507Z,97801.06
2023-01-06T15:41:34.164Z,97786.81
2023-01-06T15:44:04.773Z,97799.66
2023-01-06T15:46:42.080Z,97803.34
2023-01-06T15:49:19.434Z,97796.16
2023-01-06T15:51:55.836Z,97807.13
2023-01-06T15:54:23.024Z,97811.09
2023-01-06T15:56:49.995Z,97814.88
2023-01-06T15:59:16.590Z,97828.13
2023-01-06T16:01:52.457Z,97822.50
2023-01-06T16:04:20.771Z,97824.69
2023-01-06T16:06:47.511Z,97818.75
2023-01-06T16:09:19.807Z,97827.53
2023-01-06T16:12:06.915Z,97829.81
2023-01-06T16:14:36.145Z,97834.63
2023-01-06T16:17:08.397Z,97836.84
2023-01-06T16:19:45.100Z,97841.75
2023-01-06T16:22:32.359Z,97844.03
2023-01-06T16:25:02.499Z,97843.63
2023-01-06T16:27:29.205Z,97851.34
2023-01-06T16:30:14.012Z,97858.47
2023-01-06T16:32:46.837Z,97852.69
2023-01-06T16:35:13.295Z,97867.44
2023-01-06T16:37:40.061Z,97861.72
2023-01-06T16:40:07.630Z,97872.97
2023-01-06T16:42:39.417Z,97867.94
2023-01-06T16:45:10.824Z,97867.66
2023-01-06T16:47:37.486Z,97863.44
2023-01-06T16:50:25.663Z,97864.41
2023-01-06T16:53:00.850Z,97861.88
2023-01-06T16:55:28.021Z,97868.56
2023-01-06T16:57:55.794Z,97868.91
2023-01-06T17:00:25.575Z,97872.88
2023-01-06T17:02:56.388Z,97882.88
2023-01-06T17:05:28.783Z,97880.47
2023-01-06T17:07:59.994Z,97877.44
2023-01-06T17:10:29.227Z,97887.66
2023-01-06T17:13:20.641Z,97887.88
2023-01-06T17:15:51.006Z,97889.13
2023-01-06T17:18:25.469Z,97896.53
2023-01-06T17:21:04.042Z,97900.41
2023-01-06T17:23:41.877Z,97904.25
2023-01-06T17:26:15.032Z,97903.84
2023-01-06T17:28:43.129Z,97908.75
2023-01-06T17:31:14.552Z,97909.41
2023-01-06T17:33:41.156Z,97913.31
2023-01-06T17:36:23.999Z,97915.44
2023-01-06T17:38:52.193Z,97920.31
2023-01-06T17:41:19.785Z,97918.97
2023-01-06T17:43:46.431Z,97928.72
2023-01-06T17:46:41.570Z,97929.63
2023-01-06T17:49:20.091Z,97923.75
2023-01-06T17:51:49.195Z,97925.38
2023-01-06T17:54:50.345Z,97922.94
2023-01-06T17:57:21.295Z,97920.53
2023-01-06T17:59:53.071Z,97915.19
2023-01-06T18:02:40.480Z,97919.38
2023-01-06T18:05:27.264Z,97927.28
2023-01-06T18:08:06.125Z,97922.28
2023-01-06T18:10:42.370Z,97926.63
2023-01-06T18:13:11.988Z,97927.56
2023-01-06T18:15:38.497Z,97927.06
2023-01-06T18:18:19.333Z,97922.75
2023-01-06T18:20:47.818Z,97932.06
2023-01-06T18:23:21.849Z,97921.16
2023-01-06T18:25:52.677Z,97929.16
2023-01-06T18:28:19.400Z,97929.84
2023-01-06T18:30:48.545Z,97924.75
2023-01-06T18:33:18.800Z,97927.00
2023-01-06T18:35:46.857Z,97932.88
2023-01-06T18:38:13.392Z,97922.72
2023-01-06T18:40:39.920Z,97933.00
2023-01-06T18:43:25.986Z,97930.09
2023-01-06T18:45:56.618Z,97930.69
2023-01-06T18:48:38.497Z,97928.91
2023-01-06T18:51:21.383Z,97928.91
2023-01-06T18:53:50.339Z,97932.81
2023-01-06T18:56:20.896Z,97932.44
2023-01-06T18:58:53.097Z,97940.63
2023-01-06T19:01:22.176Z,97941.38
2023-01-06T19:03:54.722Z,97936.56
2023-01-06T19:06:30.897Z,97943.34
2023-01-06T19:08:57.619Z,97940.69
2023-01-06T19:11:26.958Z,97934.38
2023-01-06T19:13:59.016Z,97934.19
2023-01-06T19:16:37.898Z,97927.81
2023-01-06T19:19:10.982Z,97932.63
2023-01-06T19:21:38.553Z,97927.81
2023-01-06T19:24:36.831Z,97931.66
2023-01-06T19:27:03.454Z,97920.00
2023-01-06T19:29:35.589Z,97920.94
2023-01-06T19:32:12.635Z,97921.34
2023-01-06T19:34:39.182Z,97921.00
2023-01-06T19:37:15.960Z,97916.28
2023-01-06T19:39:47.539Z,97910.63
2023-01-06T19:42:29.623Z,97912.03
2023-01-06T19:45:08.886Z,97914.66
2023-01-06T19:47:39.831Z,97910.53
2023-01-06T19:50:19.298Z,97920.00
2023-01-06T19:52:45.851Z,97917.09
2023-01-06T19:55:24.813Z,97917.53
2023-01-06T19:57:57.526Z,97917.78
2023-01-06T20:00:44.344Z,97910.41
2023-01-06T20:03:26.936Z,97909.72
2023-01-06T20:05:53.502Z,97912.94
2023-01-06T20:08:20.199Z,97903.69
2023-01-06T20:10:46.692Z,97903.00
2023-01-06T20:13:13.243Z,97912.25
2023-01-06T20:15:39.912Z,97902.97
2023-01-06T20:18:06.452Z,97902.34
2023-01-06T20:20:32.922Z,97900.00
2023-01-06T20:22:59.364Z,97902.25
2023-01-06T20:25:25.829Z,97908.03
2023-01-06T20:27:53.515Z,97905.16
2023-01-06T20:30:20.237Z,97898.69
2023-01-06T20:32:46.768Z,97911.59
2023-01-06T20:35:15.215Z,97906.22
2023-01-06T20:37:41.804Z,97911.56
2023-01-06T20:40:09.317Z,97914.16
2023-01-06T20:42:35.836Z,97904.31
2023-01-06T20:45:02.310Z,97909.16
2023-01-06T20:47:28.758Z,97912.22
2023-01-06T20:49:55.285Z,97901.81
2023-01-06T20:52:23.860Z,97901.44
2023-01-06T20:54:53.127Z,97900.16
2023-01-06T20:57:19.608Z,97901.91
2023-01-06T20:59:46.120Z,97903.22
2023-01-06T21:02:12.714Z,97909.72
2023-01-06T21:04:39.194Z,97904.44
2023-01-06T21:07:06.718Z,97904.53
2023-01-06T21:09:33.251Z,97915.97
2023-01-06T21:11:59.733Z,97911.75
2023-01-06T21:14:26.317Z,97911.28
2023-01-06T21:16:52.793Z,97898.75
2023-01-06T21:19:21.840Z,97901.97
2023-01-06T21:21:48.488Z,97900.66
2023-01-06T21:24:16.150Z,97892.69
2023-01-06T21:26:42.660Z,97891.47
2023-01-06T21:29:09.127Z,97893.34
2023-01-06T21:31:35.670Z,97889.09
2023-01-06T21:34:02.172Z,97885.69
2023-01-06T21:36:28.713Z,97893.91
2023-01-06T21:38:55.302Z,97891.63
2023-01-06T21:41:40.547Z,97891.03
2023-01-06T21:44:07.079Z,97887.53
2023-01-06T21:46:33.910Z,97888.22
2023-01-06T21:49:00.471Z,97889.16
2023-01-06T21:51:27.368Z,97888.41
2023-01-06T21:53:54.031Z,97886.09
2023-01-06T21:56:20.610Z,97888.22
2023-01-06T21:58:47.142Z,97883.16
2023-01-06T22:01:13.709Z,97883.28
2023-01-06T22:03:40.222Z,97881.88
2023-01-06T22:06:07.104Z,97880.31
2023-01-06T22:08:33.807Z,97882.81
2023-01-06T22:11:00.645Z,97882.28
2023-01-06T22:13:31.771Z,97894.63
2023-01-06T22:15:58.726Z,97879.84
2023-01-06T22:18:26.206Z,97886.91
2023-01-06T22:20:53.022Z,97885.41
2023-01-06T22:23:21.762Z,97884.88
2023-01-06T22:25:48.572Z,97877.25
2023-01-06T22:28:17.608Z,97879.84
2023-01-06T22:30:44.209Z,97876.22
2023-01-06T22:33:10.784Z,97871.56
2023-01-06T22:35:37.342Z,97874.22
2023-01-06T22:38:03.847Z,97877.84
2023-01-06T22:40:30.415Z,97875.91
2023-01-06T22:42:57.121Z,97874.38
2023-01-06T22:45:23.792Z,97871.78
2023-01-06T22:47:50.348Z,97878.25
2023-01-06T22:50:17.138Z,97869.06
2023-01-06T22:52:43.693Z,97876.69
2023-01-06T22:55:10.542Z,97871.13
2023-01-06T22:57:39.564Z,97871.41
2023-01-06T23:00:12.267Z,97864.50
2023-01-06T23:02:39.000Z,97870.66
2023-01-06T23:05:05.937Z,97867.63
2023-01-06T23:07:37.067Z,97865.44
2023-01-06T23:10:04.245Z,97864.34
2023-01-06T23:12:32.999Z,97864.09
2023-01-06T23:14:59.561Z,97856.88
2023-01-06T23:17:26.174Z,97855.31
2023-01-06T23:19:52.808Z,97858.13
2023-01-06T23:22:19.396Z,97856.81
2023-01-06T23:24:45.947Z,97855.19
2023-01-06T23:27:14.862Z,97853.53
2023-01-06T23:29:41.491Z,97853.28
2023-01-06T23:32:08.141Z,97848.81
2023-01-06T23:34:34.776Z,97848.16
2023-01-06T23:37:01.293Z,97851.19
2023-01-06T23:39:29.870Z,97850.25
2023-01-06T23:41:56.446Z,97849.34
2023-01-06T23:44:23.008Z,97850.19
2023-01-06T23:46:49.625Z,97850.13
2023-01-06T23:49:17.491Z,97848.06
2023-01-06T23:51:44.913Z,97844.78
2023-01-06T23:54:12.473Z,97841.03
2023-01-06T23:56:39.269Z,97848.56
2023-01-06T23:59:07.387Z,97843.28
